sensor_id;sensor_type;location;lat;lon;timestamp;temperature;humidity
16180;DHT22;8196;49.428;10.906;2023-02-22T00:00:15;3.30;99.90
16180;DHT22;8196;49.428;10.906;2023-02-22T00:02:49;3.20;99.90
16180;DHT22;8196;49.428;10.906;2023-02-22T00:05:18;3.20;99.90
16180;DHT22;8196;49.428;10.906;2023-02-22T00:07:47;3.20;99.90
16180;DHT22;8196;49.428;10.906;2023-02-22T00:10:15;3.20;99.90
16180;DHT22;8196;49.428;10.906;2023-02-22T00:12:46;3.20;99.90
16180;DHT22;8196;49.428;10.906;2023-02-22T00:15:19;3.20;99.90
16180;DHT22;8196;49.428;10.906;2023-02-22T00:17:46;2.30;99.90
16180;DHT22;8196;49.428;10.906;2023-02-22T00:20:15;3.30;99.90
16180;DHT22;8196;49.428;10.906;2023-02-22T00:22:46;3.30;99.90
16180;DHT22;8196;49.428;10.906;2023-02-22T00:25:15;3.40;99.90
16180;DHT22;8196;49.428;10.906;2023-02-22T00:27:44;3.40;99.90
16180;DHT22;8196;49.428;10.906;2023-02-22T00:30:17;3.40;99.90
16180;DHT22;8196;49.428;10.906;2023-02-22T00:32:46;3.40;99.90
16180;DHT22;8196;49.428;10.906;2023-02-22T00:35:14;3.40;99.90
16180;DHT22;8196;49.428;10.906;2023-02-22T00:37:41;3.50;99.90
16180;DHT22;8196;49.428;10.906;2023-02-22T00:40:10;3.40;99.90
16180;DHT22;8196;49.428;10.906;2023-02-22T00:42:37;3.40;99.90
16180;DHT22;8196;49.428;10.906;2023-02-22T00:45:04;3.40;99.90
16180;DHT22;8196;49.428;10.906;2023-02-22T00:47:31;3.40;99.90
16180;DHT22;8196;49.428;10.906;2023-02-22T00:49:58;3.40;99.90
16180;DHT22;8196;49.428;10.906;2023-02-22T00:52:26;3.40;99.90
16180;DHT22;8196;49.428;10.906;2023-02-22T00:54:54;3.70;99.90
16180;DHT22;8196;49.428;10.906;2023-02-22T00:57:21;3.30;99.90
16180;DHT22;8196;49.428;10.906;2023-02-22T00:59:48;3.40;99.90
16180;DHT22;8196;49.428;10.906;2023-02-22T01:02:15;3.40;99.90
16180;DHT22;8196;49.428;10.906;2023-02-22T01:04:42;3.40;99.90
16180;DHT22;8196;49.428;10.906;2023-02-22T01:07:09;3.40;99.90
16180;DHT22;8196;49.428;10.906;2023-02-22T01:09:36;3.40;99.90
16180;DHT22;8196;49.428;10.906;2023-02-22T01:12:05;3.40;99.90
16180;DHT22;8196;49.428;10.906;2023-02-22T01:14:31;3.40;99.90
16180;DHT22;8196;49.428;10.906;2023-02-22T01:16:58;3.40;99.90
16180;DHT22;8196;49.428;10.906;2023-02-22T01:19:25;3.30;99.90
16180;DHT22;8196;49.428;10.906;2023-02-22T01:21:51;3.30;99.90
16180;DHT22;8196;49.428;10.906;2023-02-22T01:24:20;2.40;99.90
16180;DHT22;8196;49.428;10.906;2023-02-22T01:26:51;3.30;99.90
16180;DHT22;8196;49.428;10.906;2023-02-22T01:29:18;3.20;99.90
16180;DHT22;8196;49.428;10.906;2023-02-22T01:31:52;3.30;99.90
16180;DHT22;8196;49.428;10.906;2023-02-22T01:34:21;3.30;99.90
16180;DHT22;8196;49.428;10.906;2023-02-22T01:36:49;3.20;99.90
16180;DHT22;8196;49.428;10.906;2023-02-22T01:39:16;3.20;99.90
16180;DHT22;8196;49.428;10.906;2023-02-22T01:41:44;3.20;99.90
16180;DHT22;8196;49.428;10.906;2023-02-22T01:44:30;3.20;99.90
16180;DHT22;8196;49.428;10.906;2023-02-22T01:46:59;3.20;99.90
16180;DHT22;8196;49.428;10.906;2023-02-22T01:49:32;3.20;99.90
16180;DHT22;8196;49.428;10.906;2023-02-22T01:52:03;2.90;99.90
16180;DHT22;8196;49.428;10.906;2023-02-22T01:54:34;2.80;99.90
16180;DHT22;8196;49.428;10.906;2023-02-22T01:57:07;2.80;99.90
16180;DHT22;8196;49.428;10.906;2023-02-22T01:59:42;2.70;99.90
16180;DHT22;8196;49.428;10.906;2023-02-22T02:02:09;2.60;99.90
16180;DHT22;8196;49.428;10.906;2023-02-22T02:04:36;-1.20;99.90
16180;DHT22;8196;49.428;10.906;2023-02-22T02:07:07;2.50;99.90
16180;DHT22;8196;49.428;10.906;2023-02-22T02:09:47;2.50;99.90
16180;DHT22;8196;49.428;10.906;2023-02-22T02:12:16;2.40;99.90
16180;DHT22;8196;49.428;10.906;2023-02-22T02:14:45;2.30;99.90
16180;DHT22;8196;49.428;10.906;2023-02-22T02:17:14;2.30;99.90
16180;DHT22;8196;49.428;10.906;2023-02-22T02:22:32;2.10;99.90
16180;DHT22;8196;49.428;10.906;2023-02-22T02:28:16;2.10;99.90
16180;DHT22;8196;49.428;10.906;2023-02-22T02:35:50;2.00;99.90
16180;DHT22;8196;49.428;10.906;2023-02-22T02:38:48;2.00;99.90
16180;DHT22;8196;49.428;10.906;2023-02-22T02:41:31;1.90;99.90
16180;DHT22;8196;49.428;10.906;2023-02-22T02:44:03;1.90;99.90
16180;DHT22;8196;49.428;10.906;2023-02-22T02:46:38;1.90;99.90
16180;DHT22;8196;49.428;10.906;2023-02-22T02:49:12;1.80;99.90
16180;DHT22;8196;49.428;10.906;2023-02-22T02:51:45;1.70;99.90
16180;DHT22;8196;49.428;10.906;2023-02-22T02:54:13;1.70;99.90
16180;DHT22;8196;49.428;10.906;2023-02-22T02:56:41;1.70;99.90
16180;DHT22;8196;49.428;10.906;2023-02-22T02:59:27;1.60;99.90
16180;DHT22;8196;49.428;10.906;2023-02-22T03:05:10;1.60;99.90
16180;DHT22;8196;49.428;10.906;2023-02-22T03:07:55;1.60;99.90
16180;DHT22;8196;49.428;10.906;2023-02-22T03:10:50;1.50;99.90
16180;DHT22;8196;49.428;10.906;2023-02-22T03:21:42;1.50;99.90
16180;DHT22;8196;49.428;10.906;2023-02-22T03:24:21;1.40;99.90
16180;DHT22;8196;49.428;10.906;2023-02-22T03:26:57;1.40;99.90
16180;DHT22;8196;49.428;10.906;2023-02-22T03:29:27;1.40;99.90
16180;DHT22;8196;49.428;10.906;2023-02-22T03:31:55;1.40;99.90
16180;DHT22;8196;49.428;10.906;2023-02-22T03:34:33;1.40;99.90
16180;DHT22;8196;49.428;10.906;2023-02-22T03:37:04;1.40;99.90
16180;DHT22;8196;49.428;10.906;2023-02-22T03:39:35;1.30;99.90
16180;DHT22;8196;49.428;10.906;2023-02-22T03:42:09;1.30;99.90
16180;DHT22;8196;49.428;10.906;2023-02-22T03:44:39;1.30;99.90
16180;DHT22;8196;49.428;10.906;2023-02-22T03:47:11;1.30;99.90
16180;DHT22;8196;49.428;10.906;2023-02-22T03:49:44;1.30;99.90
16180;DHT22;8196;49.428;10.906;2023-02-22T03:52:13;1.30;99.90
16180;DHT22;8196;49.428;10.906;2023-02-22T03:54:40;1.30;99.90
16180;DHT22;8196;49.428;10.906;2023-02-22T03:57:14;1.30;99.90
16180;DHT22;8196;49.428;10.906;2023-02-22T03:59:43;1.30;99.90
16180;DHT22;8196;49.428;10.906;2023-02-22T04:02:10;1.30;99.90
16180;DHT22;8196;49.428;10.906;2023-02-22T04:04:37;1.30;99.90
16180;DHT22;8196;49.428;10.906;2023-02-22T04:07:04;1.40;99.90
16180;DHT22;8196;49.428;10.906;2023-02-22T04:09:30;1.40;99.90
16180;DHT22;8196;49.428;10.906;2023-02-22T04:11:58;1.40;99.90
16180;DHT22;8196;49.428;10.906;2023-02-22T04:14:24;1.40;99.90
16180;DHT22;8196;49.428;10.906;2023-02-22T04:16:54;1.40;99.90
16180;DHT22;8196;49.428;10.906;2023-02-22T04:19:21;1.40;99.90
16180;DHT22;8196;49.428;10.906;2023-02-22T04:21:48;1.40;99.90
16180;DHT22;8196;49.428;10.906;2023-02-22T04:24:15;1.40;99.90
16180;DHT22;8196;49.428;10.906;2023-02-22T04:26:41;1.40;99.90
16180;DHT22;8196;49.428;10.906;2023-02-22T04:29:08;1.40;99.90
16180;DHT22;8196;49.428;10.906;2023-02-22T04:31:35;1.30;99.90
16180;DHT22;8196;49.428;10.906;2023-02-22T04:34:02;1.30;99.90
16180;DHT22;8196;49.428;10.906;2023-02-22T04:36:29;1.30;99.90
16180;DHT22;8196;49.428;10.906;2023-02-22T04:38:58;1.30;99.90
16180;DHT22;8196;49.428;10.906;2023-02-22T04:41:25;1.40;99.90
16180;DHT22;8196;49.428;10.906;2023-02-22T04:43:52;1.60;99.90
16180;DHT22;8196;49.428;10.906;2023-02-22T04:46:18;2.80;99.90
16180;DHT22;8196;49.428;10.906;2023-02-22T04:48:45;0.80;99.90
16180;DHT22;8196;49.428;10.906;2023-02-22T04:51:12;1.30;99.90
16180;DHT22;8196;49.428;10.906;2023-02-22T04:53:38;1.30;99.90
16180;DHT22;8196;49.428;10.906;2023-02-22T04:56:05;1.30;99.90
16180;DHT22;8196;49.428;10.906;2023-02-22T04:58:32;1.20;99.90
16180;DHT22;8196;49.428;10.906;2023-02-22T05:00:59;1.20;99.90
16180;DHT22;8196;49.428;10.906;2023-02-22T05:03:26;1.20;99.90
16180;DHT22;8196;49.428;10.906;2023-02-22T05:05:53;1.10;99.90
16180;DHT22;8196;49.428;10.906;2023-02-22T05:08:20;1.10;99.90
16180;DHT22;8196;49.428;10.906;2023-02-22T05:10:46;1.20;99.90
16180;DHT22;8196;49.428;10.906;2023-02-22T05:13:13;1.20;99.90
16180;DHT22;8196;49.428;10.906;2023-02-22T05:15:40;1.30;99.90
16180;DHT22;8196;49.428;10.906;2023-02-22T05:18:07;1.30;99.90
16180;DHT22;8196;49.428;10.906;2023-02-22T05:20:34;1.30;99.90
16180;DHT22;8196;49.428;10.906;2023-02-22T05:23:01;1.30;99.90
16180;DHT22;8196;49.428;10.906;2023-02-22T05:25:28;1.30;99.90
16180;DHT22;8196;49.428;10.906;2023-02-22T05:28:07;1.30;99.90
16180;DHT22;8196;49.428;10.906;2023-02-22T05:30:35;1.30;99.90
16180;DHT22;8196;49.428;10.906;2023-02-22T05:33:05;1.20;99.90
16180;DHT22;8196;49.428;10.906;2023-02-22T05:35:32;1.20;99.90
16180;DHT22;8196;49.428;10.906;2023-02-22T05:37:59;1.10;99.90
16180;DHT22;8196;49.428;10.906;2023-02-22T05:40:29;1.60;99.90
16180;DHT22;8196;49.428;10.906;2023-02-22T05:42:56;1.00;99.90
16180;DHT22;8196;49.428;10.906;2023-02-22T05:45:25;0.90;99.90
16180;DHT22;8196;49.428;10.906;2023-02-22T05:47:52;0.80;99.90
16180;DHT22;8196;49.428;10.906;2023-02-22T05:50:20;0.80;99.90
16180;DHT22;8196;49.428;10.906;2023-02-22T05:52:47;0.70;99.90
16180;DHT22;8196;49.428;10.906;2023-02-22T05:55:17;0.70;99.90
16180;DHT22;8196;49.428;10.906;2023-02-22T05:57:44;0.60;99.90
16180;DHT22;8196;49.428;10.906;2023-02-22T06:00:18;0.60;99.90
16180;DHT22;8196;49.428;10.906;2023-02-22T06:02:45;0.60;99.90
16180;DHT22;8196;49.428;10.906;2023-02-22T06:05:12;0.50;99.90
16180;DHT22;8196;49.428;10.906;2023-02-22T06:07:39;0.50;99.90
16180;DHT22;8196;49.428;10.906;2023-02-22T06:10:06;0.50;99.90
16180;DHT22;8196;49.428;10.906;2023-02-22T06:12:33;0.40;99.90
16180;DHT22;8196;49.428;10.906;2023-02-22T06:14:59;0.40;99.90
16180;DHT22;8196;49.428;10.906;2023-02-22T06:17:26;0.50;99.90
16180;DHT22;8196;49.428;10.906;2023-02-22T06:19:53;0.50;99.90
16180;DHT22;8196;49.428;10.906;2023-02-22T06:22:19;0.60;99.90
16180;DHT22;8196;49.428;10.906;2023-02-22T06:24:46;0.60;99.90
16180;DHT22;8196;49.428;10.906;2023-02-22T06:27:13;0.60;99.90
16180;DHT22;8196;49.428;10.906;2023-02-22T06:29:43;0.60;99.90
16180;DHT22;8196;49.428;10.906;2023-02-22T06:32:11;3.80;99.90
16180;DHT22;8196;49.428;10.906;2023-02-22T06:34:37;0.60;99.90
16180;DHT22;8196;49.428;10.906;2023-02-22T06:37:06;0.60;99.90
16180;DHT22;8196;49.428;10.906;2023-02-22T06:39:33;0.60;99.90
16180;DHT22;8196;49.428;10.906;2023-02-22T06:42:00;0.60;99.90
16180;DHT22;8196;49.428;10.906;2023-02-22T06:44:27;0.60;99.90
16180;DHT22;8196;49.428;10.906;2023-02-22T06:46:53;0.60;99.90
16180;DHT22;8196;49.428;10.906;2023-02-22T06:49:21;0.70;99.90
16180;DHT22;8196;49.428;10.906;2023-02-22T06:51:48;0.70;99.90
16180;DHT22;8196;49.428;10.906;2023-02-22T06:54:15;0.80;99.90
16180;DHT22;8196;49.428;10.906;2023-02-22T06:56:41;0.80;99.90
16180;DHT22;8196;49.428;10.906;2023-02-22T06:59:08;0.80;99.90
16180;DHT22;8196;49.428;10.906;2023-02-22T07:01:35;1.00;99.90
16180;DHT22;8196;49.428;10.906;2023-02-22T07:04:02;1.00;99.90
16180;DHT22;8196;49.428;10.906;2023-02-22T07:06:29;1.10;99.90
16180;DHT22;8196;49.428;10.906;2023-02-22T07:08:55;1.20;99.90
16180;DHT22;8196;49.428;10.906;2023-02-22T07:11:22;1.40;99.90
16180;DHT22;8196;49.428;10.906;2023-02-22T07:13:49;1.40;99.90
16180;DHT22;8196;49.428;10.906;2023-02-22T07:16:16;1.40;99.90
16180;DHT22;8196;49.428;10.906;2023-02-22T07:18:42;1.50;99.90
16180;DHT22;8196;49.428;10.906;2023-02-22T07:21:09;1.60;99.90
16180;DHT22;8196;49.428;10.906;2023-02-22T07:23:37;1.60;99.90
16180;DHT22;8196;49.428;10.906;2023-02-22T07:26:04;1.70;99.90
16180;DHT22;8196;49.428;10.906;2023-02-22T07:28:31;1.80;99.90
16180;DHT22;8196;49.428;10.906;2023-02-22T07:30:58;2.00;99.90
16180;DHT22;8196;49.428;10.906;2023-02-22T07:33:25;2.00;99.90
16180;DHT22;8196;49.428;10.906;2023-02-22T07:35:52;2.10;99.90
16180;DHT22;8196;49.428;10.906;2023-02-22T07:38:19;2.30;99.90
16180;DHT22;8196;49.428;10.906;2023-02-22T07:40:46;1.70;99.90
16180;DHT22;8196;49.428;10.906;2023-02-22T07:43:18;2.40;99.90
16180;DHT22;8196;49.428;10.906;2023-02-22T07:45:47;2.50;99.90
16180;DHT22;8196;49.428;10.906;2023-02-22T07:48:14;2.90;99.90
16180;DHT22;8196;49.428;10.906;2023-02-22T07:50:43;3.20;99.90
16180;DHT22;8196;49.428;10.906;2023-02-22T07:53:17;3.20;99.90
16180;DHT22;8196;49.428;10.906;2023-02-22T07:55:45;3.80;99.90
16180;DHT22;8196;49.428;10.906;2023-02-22T07:58:13;3.80;99.90
16180;DHT22;8196;49.428;10.906;2023-02-22T08:00:41;4.10;99.90
16180;DHT22;8196;49.428;10.906;2023-02-22T08:03:11;4.30;99.90
16180;DHT22;8196;49.428;10.906;2023-02-22T08:05:41;4.30;99.90
16180;DHT22;8196;49.428;10.906;2023-02-22T08:08:08;4.40;99.90
16180;DHT22;8196;49.428;10.906;2023-02-22T08:10:35;4.40;99.90
16180;DHT22;8196;49.428;10.906;2023-02-22T08:13:03;4.60;99.90
16180;DHT22;8196;49.428;10.906;2023-02-22T08:15:34;4.80;99.90
16180;DHT22;8196;49.428;10.906;2023-02-22T08:18:03;5.00;99.90
16180;DHT22;8196;49.428;10.906;2023-02-22T08:20:29;5.20;99.90
16180;DHT22;8196;49.428;10.906;2023-02-22T08:22:57;5.40;99.90
16180;DHT22;8196;49.428;10.906;2023-02-22T08:25:26;5.60;99.90
16180;DHT22;8196;49.428;10.906;2023-02-22T08:27:58;5.80;99.90
16180;DHT22;8196;49.428;10.906;2023-02-22T08:30:28;6.00;99.90
16180;DHT22;8196;49.428;10.906;2023-02-22T08:32:55;6.20;99.90
16180;DHT22;8196;49.428;10.906;2023-02-22T08:35:24;6.40;99.90
16180;DHT22;8196;49.428;10.906;2023-02-22T08:37:53;6.60;99.90
16180;DHT22;8196;49.428;10.906;2023-02-22T08:40:24;6.80;99.90
16180;DHT22;8196;49.428;10.906;2023-02-22T08:42:50;6.90;99.90
16180;DHT22;8196;49.428;10.906;2023-02-22T08:45:17;7.00;99.90
16180;DHT22;8196;49.428;10.906;2023-02-22T08:47:45;7.10;99.90
16180;DHT22;8196;49.428;10.906;2023-02-22T08:50:18;7.30;99.90
16180;DHT22;8196;49.428;10.906;2023-02-22T08:52:45;7.50;99.90
16180;DHT22;8196;49.428;10.906;2023-02-22T08:55:12;7.70;99.90
16180;DHT22;8196;49.428;10.906;2023-02-22T08:57:38;7.90;99.90
16180;DHT22;8196;49.428;10.906;2023-02-22T09:00:06;8.10;99.90
16180;DHT22;8196;49.428;10.906;2023-02-22T09:02:33;8.40;99.90
16180;DHT22;8196;49.428;10.906;2023-02-22T09:04:59;8.50;99.90
16180;DHT22;8196;49.428;10.906;2023-02-22T09:07:26;8.60;99.90
16180;DHT22;8196;49.428;10.906;2023-02-22T09:09:53;8.60;99.90
16180;DHT22;8196;49.428;10.906;2023-02-22T09:12:20;8.70;99.90
16180;DHT22;8196;49.428;10.906;2023-02-22T09:14:46;8.80;99.90
16180;DHT22;8196;49.428;10.906;2023-02-22T09:17:13;8.90;99.90
16180;DHT22;8196;49.428;10.906;2023-02-22T09:19:40;9.30;99.90
16180;DHT22;8196;49.428;10.906;2023-02-22T09:22:07;9.60;99.90
16180;DHT22;8196;49.428;10.906;2023-02-22T09:24:33;9.70;99.90
16180;DHT22;8196;49.428;10.906;2023-02-22T09:27:02;9.80;99.90
16180;DHT22;8196;49.428;10.906;2023-02-22T09:29:29;9.90;99.90
16180;DHT22;8196;49.428;10.906;2023-02-22T09:31:56;10.20;99.90
16180;DHT22;8196;49.428;10.906;2023-02-22T09:34:24;10.30;99.90
16180;DHT22;8196;49.428;10.906;2023-02-22T09:36:56;10.40;99.90
16180;DHT22;8196;49.428;10.906;2023-02-22T09:39:23;10.50;99.90
16180;DHT22;8196;49.428;10.906;2023-02-22T09:42:00;10.70;99.90
16180;DHT22;8196;49.428;10.906;2023-02-22T09:44:46;10.80;99.90
16180;DHT22;8196;49.428;10.906;2023-02-22T09:47:17;11.00;99.90
16180;DHT22;8196;49.428;10.906;2023-02-22T09:50:06;11.20;99.90
16180;DHT22;8196;49.428;10.906;2023-02-22T09:52:54;11.80;99.90
16180;DHT22;8196;49.428;10.906;2023-02-22T09:57:56;12.60;99.90
16180;DHT22;8196;49.428;10.906;2023-02-22T10:00:28;12.80;99.90
16180;DHT22;8196;49.428;10.906;2023-02-22T10:03:16;13.10;99.90
16180;DHT22;8196;49.428;10.906;2023-02-22T10:05:53;13.40;99.90
16180;DHT22;8196;49.428;10.906;2023-02-22T10:08:27;13.90;98.00
16180;DHT22;8196;49.428;10.906;2023-02-22T10:21:45;15.60;87.20
16180;DHT22;8196;49.428;10.906;2023-02-22T10:26:57;15.60;90.10
16180;DHT22;8196;49.428;10.906;2023-02-22T10:29:41;16.00;85.10
16180;DHT22;8196;49.428;10.906;2023-02-22T10:32:15;17.20;80.20
16180;DHT22;8196;49.428;10.906;2023-02-22T10:34:47;17.20;80.20
16180;DHT22;8196;49.428;10.906;2023-02-22T10:37:31;17.80;80.00
16180;DHT22;8196;49.428;10.906;2023-02-22T10:40:14;18.70;75.60
16180;DHT22;8196;49.428;10.906;2023-02-22T10:42:45;19.90;69.50
16180;DHT22;8196;49.428;10.906;2023-02-22T10:45:24;20.50;65.80
16180;DHT22;8196;49.428;10.906;2023-02-22T10:47:55;20.90;62.90
16180;DHT22;8196;49.428;10.906;2023-02-22T10:50:30;21.10;61.70
16180;DHT22;8196;49.428;10.906;2023-02-22T10:52:58;21.30;59.50
16180;DHT22;8196;49.428;10.906;2023-02-22T10:55:25;21.50;60.00
16180;DHT22;8196;49.428;10.906;2023-02-22T10:57:59;21.90;58.00
16180;DHT22;8196;49.428;10.906;2023-02-22T11:00:38;22.20;57.90
16180;DHT22;8196;49.428;10.906;2023-02-22T11:03:16;22.60;55.20
16180;DHT22;8196;49.428;10.906;2023-02-22T11:05:44;22.70;55.50
16180;DHT22;8196;49.428;10.906;2023-02-22T11:10:41;22.70;56.20
16180;DHT22;8196;49.428;10.906;2023-02-22T11:13:17;22.90;53.50
16180;DHT22;8196;49.428;10.906;2023-02-22T11:15:44;23.00;55.10
16180;DHT22;8196;49.428;10.906;2023-02-22T11:18:30;23.20;54.50
16180;DHT22;8196;49.428;10.906;2023-02-22T11:21:07;23.70;53.80
16180;DHT22;8196;49.428;10.906;2023-02-22T11:23:40;23.80;54.20
16180;DHT22;8196;49.428;10.906;2023-02-22T11:26:13;21.00;48.90
16180;DHT22;8196;49.428;10.906;2023-02-22T11:28:44;23.40;52.20
16180;DHT22;8196;49.428;10.906;2023-02-22T11:31:18;23.70;53.80
16180;DHT22;8196;49.428;10.906;2023-02-22T11:33:50;23.80;53.50
16180;DHT22;8196;49.428;10.906;2023-02-22T11:36:37;24.00;51.80
16180;DHT22;8196;49.428;10.906;2023-02-22T11:39:24;24.10;52.00
16180;DHT22;8196;49.428;10.906;2023-02-22T11:41:53;24.20;52.70
16180;DHT22;8196;49.428;10.906;2023-02-22T11:44:24;24.50;51.50
16180;DHT22;8196;49.428;10.906;2023-02-22T11:46:55;24.60;51.50
16180;DHT22;8196;49.428;10.906;2023-02-22T11:49:30;24.20;51.40
16180;DHT22;8196;49.428;10.906;2023-02-22T11:57:37;25.30;51.20
16180;DHT22;8196;49.428;10.906;2023-02-22T12:05:43;25.60;48.80
16180;DHT22;8196;49.428;10.906;2023-02-22T12:11:11;24.40;50.60
16180;DHT22;8196;49.428;10.906;2023-02-22T12:21:55;27.20;45.80
16180;DHT22;8196;49.428;10.906;2023-02-22T12:24:27;27.30;46.30
16180;DHT22;8196;49.428;10.906;2023-02-22T12:27:05;27.60;45.60
16180;DHT22;8196;49.428;10.906;2023-02-22T12:29:42;27.60;44.90
16180;DHT22;8196;49.428;10.906;2023-02-22T12:32:23;27.30;45.20
16180;DHT22;8196;49.428;10.906;2023-02-22T12:34:55;26.70;46.40
16180;DHT22;8196;49.428;10.906;2023-02-22T12:37:27;26.30;48.50
16180;DHT22;8196;49.428;10.906;2023-02-22T12:40:08;26.80;47.80
16180;DHT22;8196;49.428;10.906;2023-02-22T12:42:49;27.70;44.20
16180;DHT22;8196;49.428;10.906;2023-02-22T12:48:25;29.00;44.00
16180;DHT22;8196;49.428;10.906;2023-02-22T12:51:00;29.80;40.20
16180;DHT22;8196;49.428;10.906;2023-02-22T12:53:33;29.70;40.60
16180;DHT22;8196;49.428;10.906;2023-02-22T12:56:17;29.30;40.50
16180;DHT22;8196;49.428;10.906;2023-02-22T12:58:53;28.00;42.50
16180;DHT22;8196;49.428;10.906;2023-02-22T13:01:26;27.10;45.20
16180;DHT22;8196;49.428;10.906;2023-02-22T13:03:55;27.20;45.50
16180;DHT22;8196;49.428;10.906;2023-02-22T13:09:25;29.80;42.50
16180;DHT22;8196;49.428;10.906;2023-02-22T13:17:53;31.80;38.10
16180;DHT22;8196;49.428;10.906;2023-02-22T13:20:43;32.80;36.30
16180;DHT22;8196;49.428;10.906;2023-02-22T13:23:17;33.20;34.30
16180;DHT22;8196;49.428;10.906;2023-02-22T13:36:36;31.60;37.70
16180;DHT22;8196;49.428;10.906;2023-02-22T13:52:30;32.80;34.20
16180;DHT22;8196;49.428;10.906;2023-02-22T13:55:00;32.60;35.20
16180;DHT22;8196;49.428;10.906;2023-02-22T13:57:46;32.50;35.00
16180;DHT22;8196;49.428;10.906;2023-02-22T14:05:45;32.20;35.10
16180;DHT22;8196;49.428;10.906;2023-02-22T14:13:10;29.60;37.10
16180;DHT22;8196;49.428;10.906;2023-02-22T14:21:06;25.20;44.80
16180;DHT22;8196;49.428;10.906;2023-02-22T14:28:57;23.10;48.40
16180;DHT22;8196;49.428;10.906;2023-02-22T14:31:28;21.90;50.60
16180;DHT22;8196;49.428;10.906;2023-02-22T14:34:06;22.90;51.90
16180;DHT22;8196;49.428;10.906;2023-02-22T14:36:38;21.30;51.60
16180;DHT22;8196;49.428;10.906;2023-02-22T14:39:34;20.80;52.80
16180;DHT22;8196;49.428;10.906;2023-02-22T14:47:18;19.90;55.40
16180;DHT22;8196;49.428;10.906;2023-02-22T14:49:49;19.70;56.30
16180;DHT22;8196;49.428;10.906;2023-02-22T14:52:24;19.50;56.30
16180;DHT22;8196;49.428;10.906;2023-02-22T14:55:15;19.40;57.00
16180;DHT22;8196;49.428;10.906;2023-02-22T15:00:43;19.20;58.70
16180;DHT22;8196;49.428;10.906;2023-02-22T15:03:32;18.90;59.20
16180;DHT22;8196;49.428;10.906;2023-02-22T15:08:41;18.40;64.50
16180;DHT22;8196;49.428;10.906;2023-02-22T15:11:25;17.90;65.60
16180;DHT22;8196;49.428;10.906;2023-02-22T15:13:53;17.80;66.40
16180;DHT22;8196;49.428;10.906;2023-02-22T15:16:21;17.60;67.10
16180;DHT22;8196;49.428;10.906;2023-02-22T15:18:53;17.40;67.70
16180;DHT22;8196;49.428;10.906;2023-02-22T15:21:23;17.00;68.60
16180;DHT22;8196;49.428;10.906;2023-02-22T15:23:54;17.00;69.90
16180;DHT22;8196;49.428;10.906;2023-02-22T15:26:40;16.80;70.90
16180;DHT22;8196;49.428;10.906;2023-02-22T15:29:24;16.80;71.20
16180;DHT22;8196;49.428;10.906;2023-02-22T15:31:52;16.40;70.30
16180;DHT22;8196;49.428;10.906;2023-02-22T15:34:27;16.40;71.40
16180;DHT22;8196;49.428;10.906;2023-02-22T15:36:56;16.30;71.70
16180;DHT22;8196;49.428;10.906;2023-02-22T15:39:27;16.20;72.00
16180;DHT22;8196;49.428;10.906;2023-02-22T15:44:35;15.90;73.20
16180;DHT22;8196;49.428;10.906;2023-02-22T15:47:02;15.80;73.60
16180;DHT22;8196;49.428;10.906;2023-02-22T15:49:29;15.70;74.40
16180;DHT22;8196;49.428;10.906;2023-02-22T15:52:06;15.50;74.70
16180;DHT22;8196;49.428;10.906;2023-02-22T15:54:38;15.40;75.80
16180;DHT22;8196;49.428;10.906;2023-02-22T15:57:06;15.20;77.00
16180;DHT22;8196;49.428;10.906;2023-02-22T15:59:41;15.10;76.50
16180;DHT22;8196;49.428;10.906;2023-02-22T16:02:22;14.90;77.30
16180;DHT22;8196;49.428;10.906;2023-02-22T16:05:02;14.90;78.50
16180;DHT22;8196;49.428;10.906;2023-02-22T16:09:56;14.60;79.60
16180;DHT22;8196;49.428;10.906;2023-02-22T16:12:26;14.60;79.50
16180;DHT22;8196;49.428;10.906;2023-02-22T16:14:53;14.60;80.40
16180;DHT22;8196;49.428;10.906;2023-02-22T16:19:54;14.40;81.20
16180;DHT22;8196;49.428;10.906;2023-02-22T16:24:53;14.20;82.90
16180;DHT22;8196;49.428;10.906;2023-02-22T16:27:22;14.20;84.10
16180;DHT22;8196;49.428;10.906;2023-02-22T16:30:21;14.10;85.80
16180;DHT22;8196;49.428;10.906;2023-02-22T16:32:54;13.70;85.90
16180;DHT22;8196;49.428;10.906;2023-02-22T16:35:24;13.60;87.70
16180;DHT22;8196;49.428;10.906;2023-02-22T16:37:57;13.50;89.10
16180;DHT22;8196;49.428;10.906;2023-02-22T16:40:26;13.40;90.50
16180;DHT22;8196;49.428;10.906;2023-02-22T16:42:59;13.30;91.20
16180;DHT22;8196;49.428;10.906;2023-02-22T16:45:26;13.20;92.00
16180;DHT22;8196;49.428;10.906;2023-02-22T16:47:53;13.10;92.60
16180;DHT22;8196;49.428;10.906;2023-02-22T16:50:20;13.00;93.10
16180;DHT22;8196;49.428;10.906;2023-02-22T16:52:47;13.00;93.50
16180;DHT22;8196;49.428;10.906;2023-02-22T16:55:16;12.90;94.40
16180;DHT22;8196;49.428;10.906;2023-02-22T16:57:44;12.80;94.60
16180;DHT22;8196;49.428;10.906;2023-02-22T17:00:16;12.70;95.00
16180;DHT22;8196;49.428;10.906;2023-02-22T17:02:44;12.60;95.60
16180;DHT22;8196;49.428;10.906;2023-02-22T17:05:13;12.50;96.50
16180;DHT22;8196;49.428;10.906;2023-02-22T17:07:41;12.40;97.20
16180;DHT22;8196;49.428;10.906;2023-02-22T17:10:14;12.30;98.00
16180;DHT22;8196;49.428;10.906;2023-02-22T17:12:44;12.30;98.80
16180;DHT22;8196;49.428;10.906;2023-02-22T17:15:20;12.20;99.60
16180;DHT22;8196;49.428;10.906;2023-02-22T17:17:49;12.20;99.90
16180;DHT22;8196;49.428;10.906;2023-02-22T17:20:17;12.10;99.90
16180;DHT22;8196;49.428;10.906;2023-02-22T17:22:50;12.10;99.90
16180;DHT22;8196;49.428;10.906;2023-02-22T17:25:22;12.20;99.90
16180;DHT22;8196;49.428;10.906;2023-02-22T17:27:49;12.30;99.90
16180;DHT22;8196;49.428;10.906;2023-02-22T17:30:16;12.10;99.90
16180;DHT22;8196;49.428;10.906;2023-02-22T17:32:43;12.10;99.90
16180;DHT22;8196;49.428;10.906;2023-02-22T17:35:10;12.10;99.90
16180;DHT22;8196;49.428;10.906;2023-02-22T17:37:37;12.00;99.90
16180;DHT22;8196;49.428;10.906;2023-02-22T17:40:04;11.90;99.90
16180;DHT22;8196;49.428;10.906;2023-02-22T17:42:31;11.80;99.90
16180;DHT22;8196;49.428;10.906;2023-02-22T17:44:58;12.30;99.90
16180;DHT22;8196;49.428;10.906;2023-02-22T17:47:24;11.70;99.90
16180;DHT22;8196;49.428;10.906;2023-02-22T17:49:51;11.60;99.90
16180;DHT22;8196;49.428;10.906;2023-02-22T17:52:18;11.60;99.90
16180;DHT22;8196;49.428;10.906;2023-02-22T17:54:45;11.50;99.90
16180;DHT22;8196;49.428;10.906;2023-02-22T17:57:11;11.50;99.90
16180;DHT22;8196;49.428;10.906;2023-02-22T17:59:38;11.50;99.90
16180;DHT22;8196;49.428;10.906;2023-02-22T18:02:06;11.30;99.90
16180;DHT22;8196;49.428;10.906;2023-02-22T18:04:34;11.30;99.90
16180;DHT22;8196;49.428;10.906;2023-02-22T18:07:02;11.20;99.90
16180;DHT22;8196;49.428;10.906;2023-02-22T18:09:29;11.10;99.90
16180;DHT22;8196;49.428;10.906;2023-02-22T18:11:56;11.10;99.90
16180;DHT22;8196;49.428;10.906;2023-02-22T18:14:23;11.00;99.90
16180;DHT22;8196;49.428;10.906;2023-02-22T18:16:50;11.00;99.90
16180;DHT22;8196;49.428;10.906;2023-02-22T18:19:17;10.90;99.90
16180;DHT22;8196;49.428;10.906;2023-02-22T18:21:47;10.80;99.90